sensor_id;sensor_type;location;lat;lon;timestamp;temperature;humidity
20349;DHT22;10332;50.208;18.988;2022-11-18T00:01:19;2.70;99.90
20349;DHT22;10332;50.208;18.988;2022-11-18T00:03:51;2.80;99.40
20349;DHT22;10332;50.208;18.988;2022-11-18T00:06:22;2.70;99.20
20349;DHT22;10332;50.208;18.988;2022-11-18T00:08:53;2.80;99.60
20349;DHT22;10332;50.208;18.988;2022-11-18T00:11:23;2.80;99.90
20349;DHT22;10332;50.208;18.988;2022-11-18T00:14:13;2.80;99.60
20349;DHT22;10332;50.208;18.988;2022-11-18T00:19:18;2.80;99.20
20349;DHT22;10332;50.208;18.988;2022-11-18T00:21:47;2.80;99.20
20349;DHT22;10332;50.208;18.988;2022-11-18T00:24:16;2.80;99.30
20349;DHT22;10332;50.208;18.988;2022-11-18T00:26:44;2.80;99.50
20349;DHT22;10332;50.208;18.988;2022-11-18T00:29:12;2.90;99.50
20349;DHT22;10332;50.208;18.988;2022-11-18T00:31:40;2.90;98.80
20349;DHT22;10332;50.208;18.988;2022-11-18T00:34:10;2.90;98.90
20349;DHT22;10332;50.208;18.988;2022-11-18T00:36:40;2.90;99.30
20349;DHT22;10332;50.208;18.988;2022-11-18T00:39:10;2.80;98.90
20349;DHT22;10332;50.208;18.988;2022-11-18T00:41:40;2.80;98.80
20349;DHT22;10332;50.208;18.988;2022-11-18T00:44:26;2.80;99.00
20349;DHT22;10332;50.208;18.988;2022-11-18T00:46:54;2.80;99.80
20349;DHT22;10332;50.208;18.988;2022-11-18T00:49:22;2.80;99.90
20349;DHT22;10332;50.208;18.988;2022-11-18T00:51:50;2.90;99.90
20349;DHT22;10332;50.208;18.988;2022-11-18T00:54:18;2.80;99.90
20349;DHT22;10332;50.208;18.988;2022-11-18T00:56:45;2.90;99.90
20349;DHT22;10332;50.208;18.988;2022-11-18T00:59:13;2.90;99.90
20349;DHT22;10332;50.208;18.988;2022-11-18T01:01:40;3.00;99.90
20349;DHT22;10332;50.208;18.988;2022-11-18T01:04:08;3.00;99.00
20349;DHT22;10332;50.208;18.988;2022-11-18T01:06:35;3.10;99.10
20349;DHT22;10332;50.208;18.988;2022-11-18T01:09:02;3.10;98.10
20349;DHT22;10332;50.208;18.988;2022-11-18T01:11:30;3.00;97.70
20349;DHT22;10332;50.208;18.988;2022-11-18T01:14:16;3.00;98.00
20349;DHT22;10332;50.208;18.988;2022-11-18T01:16:44;3.00;98.60
20349;DHT22;10332;50.208;18.988;2022-11-18T01:19:17;3.00;98.50
20349;DHT22;10332;50.208;18.988;2022-11-18T01:21:46;3.10;98.20
20349;DHT22;10332;50.208;18.988;2022-11-18T01:24:13;3.10;98.00
20349;DHT22;10332;50.208;18.988;2022-11-18T01:26:40;3.00;97.90
20349;DHT22;10332;50.208;18.988;2022-11-18T01:29:08;3.00;97.50
20349;DHT22;10332;50.208;18.988;2022-11-18T01:31:37;3.00;98.00
20349;DHT22;10332;50.208;18.988;2022-11-18T01:34:27;3.00;97.90
20349;DHT22;10332;50.208;18.988;2022-11-18T01:36:55;3.00;97.60
20349;DHT22;10332;50.208;18.988;2022-11-18T01:39:24;3.00;97.10
20349;DHT22;10332;50.208;18.988;2022-11-18T01:41:52;3.00;96.70
20349;DHT22;10332;50.208;18.988;2022-11-18T01:47:34;3.00;96.50
20349;DHT22;10332;50.208;18.988;2022-11-18T01:50:06;3.00;95.80
20349;DHT22;10332;50.208;18.988;2022-11-18T01:52:37;2.90;96.40
20349;DHT22;10332;50.208;18.988;2022-11-18T01:55:15;2.80;96.30
20349;DHT22;10332;50.208;18.988;2022-11-18T01:57:51;2.80;96.70
20349;DHT22;10332;50.208;18.988;2022-11-18T02:00:25;2.80;96.90
20349;DHT22;10332;50.208;18.988;2022-11-18T02:02:52;2.80;97.40
20349;DHT22;10332;50.208;18.988;2022-11-18T02:05:20;2.80;97.60
20349;DHT22;10332;50.208;18.988;2022-11-18T02:07:48;2.80;97.80
20349;DHT22;10332;50.208;18.988;2022-11-18T02:10:20;2.80;98.20
20349;DHT22;10332;50.208;18.988;2022-11-18T02:12:51;2.80;97.60
20349;DHT22;10332;50.208;18.988;2022-11-18T02:15:28;2.80;97.80
20349;DHT22;10332;50.208;18.988;2022-11-18T02:18:42;2.70;97.60
20349;DHT22;10332;50.208;18.988;2022-11-18T02:27:32;2.70;97.00
20349;DHT22;10332;50.208;18.988;2022-11-18T02:30:24;2.70;97.70
20349;DHT22;10332;50.208;18.988;2022-11-18T02:35:42;2.60;97.50
20349;DHT22;10332;50.208;18.988;2022-11-18T02:38:26;2.60;98.40
20349;DHT22;10332;50.208;18.988;2022-11-18T02:41:02;2.60;98.80
20349;DHT22;10332;50.208;18.988;2022-11-18T02:43:39;2.50;99.20
20349;DHT22;10332;50.208;18.988;2022-11-18T02:46:16;2.50;99.40
20349;DHT22;10332;50.208;18.988;2022-11-18T02:48:50;2.50;99.50
20349;DHT22;10332;50.208;18.988;2022-11-18T02:51:24;2.60;99.90
20349;DHT22;10332;50.208;18.988;2022-11-18T02:53:55;2.60;99.90
20349;DHT22;10332;50.208;18.988;2022-11-18T02:56:29;2.60;99.90
20349;DHT22;10332;50.208;18.988;2022-11-18T02:58:58;2.60;99.90
20349;DHT22;10332;50.208;18.988;2022-11-18T03:01:29;2.60;99.90
20349;DHT22;10332;50.208;18.988;2022-11-18T03:03:58;2.70;99.90
20349;DHT22;10332;50.208;18.988;2022-11-18T03:06:48;2.80;99.90
20349;DHT22;10332;50.208;18.988;2022-11-18T03:09:30;2.90;99.50
20349;DHT22;10332;50.208;18.988;2022-11-18T03:15:00;2.90;97.30
20349;DHT22;10332;50.208;18.988;2022-11-18T03:21:00;2.90;97.30
20349;DHT22;10332;50.208;18.988;2022-11-18T03:23:42;2.90;97.80
20349;DHT22;10332;50.208;18.988;2022-11-18T03:26:24;2.90;97.40
20349;DHT22;10332;50.208;18.988;2022-11-18T03:31:50;2.90;97.70
20349;DHT22;10332;50.208;18.988;2022-11-18T03:34:44;2.90;97.30
20349;DHT22;10332;50.208;18.988;2022-11-18T03:37:17;2.90;97.10
20349;DHT22;10332;50.208;18.988;2022-11-18T03:39:52;2.80;97.50
20349;DHT22;10332;50.208;18.988;2022-11-18T03:42:35;2.90;97.50
20349;DHT22;10332;50.208;18.988;2022-11-18T03:45:19;2.90;97.70
20349;DHT22;10332;50.208;18.988;2022-11-18T03:47:56;2.90;97.00
20349;DHT22;10332;50.208;18.988;2022-11-18T03:50:34;2.90;96.60
20349;DHT22;10332;50.208;18.988;2022-11-18T03:53:06;2.90;96.30
20349;DHT22;10332;50.208;18.988;2022-11-18T03:55:39;2.90;96.50
20349;DHT22;10332;50.208;18.988;2022-11-18T03:59:01;2.80;96.90
20349;DHT22;10332;50.208;18.988;2022-11-18T04:01:51;2.80;98.00
20349;DHT22;10332;50.208;18.988;2022-11-18T04:04:23;2.70;98.70
20349;DHT22;10332;50.208;18.988;2022-11-18T04:07:03;2.60;99.40
20349;DHT22;10332;50.208;18.988;2022-11-18T04:10:01;2.60;99.90
20349;DHT22;10332;50.208;18.988;2022-11-18T04:12:41;2.60;99.90
20349;DHT22;10332;50.208;18.988;2022-11-18T04:15:11;2.50;99.90
20349;DHT22;10332;50.208;18.988;2022-11-18T04:17:41;2.50;99.90
20349;DHT22;10332;50.208;18.988;2022-11-18T04:20:18;2.50;99.90
20349;DHT22;10332;50.208;18.988;2022-11-18T04:22:48;2.40;99.90
20349;DHT22;10332;50.208;18.988;2022-11-18T04:25:15;2.40;99.90
20349;DHT22;10332;50.208;18.988;2022-11-18T04:27:43;2.30;99.90
20349;DHT22;10332;50.208;18.988;2022-11-18T04:30:10;2.40;99.90
20349;DHT22;10332;50.208;18.988;2022-11-18T04:32:40;2.40;99.90
20349;DHT22;10332;50.208;18.988;2022-11-18T04:35:08;2.30;99.90
20349;DHT22;10332;50.208;18.988;2022-11-18T04:37:35;2.30;99.90
20349;DHT22;10332;50.208;18.988;2022-11-18T04:40:03;2.30;99.90
20349;DHT22;10332;50.208;18.988;2022-11-18T04:42:31;2.30;99.90
20349;DHT22;10332;50.208;18.988;2022-11-18T04:44:58;2.30;99.90
20349;DHT22;10332;50.208;18.988;2022-11-18T04:47:26;2.30;99.90
20349;DHT22;10332;50.208;18.988;2022-11-18T04:49:53;2.30;99.90
20349;DHT22;10332;50.208;18.988;2022-11-18T04:52:20;2.30;99.90
20349;DHT22;10332;50.208;18.988;2022-11-18T04:54:48;2.40;99.90
20349;DHT22;10332;50.208;18.988;2022-11-18T04:57:15;2.30;99.90
20349;DHT22;10332;50.208;18.988;2022-11-18T04:59:42;2.30;99.90
20349;DHT22;10332;50.208;18.988;2022-11-18T05:02:10;2.20;99.90
20349;DHT22;10332;50.208;18.988;2022-11-18T05:04:38;2.20;99.90
20349;DHT22;10332;50.208;18.988;2022-11-18T05:07:06;2.20;99.90
20349;DHT22;10332;50.208;18.988;2022-11-18T05:09:33;2.20;99.90
20349;DHT22;10332;50.208;18.988;2022-11-18T05:12:01;2.20;99.90
20349;DHT22;10332;50.208;18.988;2022-11-18T05:14:47;2.10;99.90
20349;DHT22;10332;50.208;18.988;2022-11-18T05:17:17;2.10;99.90
20349;DHT22;10332;50.208;18.988;2022-11-18T05:19:45;2.20;99.90
20349;DHT22;10332;50.208;18.988;2022-11-18T05:22:13;2.20;99.90
20349;DHT22;10332;50.208;18.988;2022-11-18T05:24:41;2.10;99.90
20349;DHT22;10332;50.208;18.988;2022-11-18T05:27:09;2.00;99.90
20349;DHT22;10332;50.208;18.988;2022-11-18T05:29:37;2.00;99.90
20349;DHT22;10332;50.208;18.988;2022-11-18T05:32:04;2.00;99.90
20349;DHT22;10332;50.208;18.988;2022-11-18T05:34:32;2.00;99.90
20349;DHT22;10332;50.208;18.988;2022-11-18T05:36:59;1.90;99.90
20349;DHT22;10332;50.208;18.988;2022-11-18T05:39:26;1.90;99.90
20349;DHT22;10332;50.208;18.988;2022-11-18T05:41:54;1.80;99.90
20349;DHT22;10332;50.208;18.988;2022-11-18T05:44:39;1.80;99.90
20349;DHT22;10332;50.208;18.988;2022-11-18T05:47:07;1.80;99.90
20349;DHT22;10332;50.208;18.988;2022-11-18T05:49:34;1.80;99.90
20349;DHT22;10332;50.208;18.988;2022-11-18T05:52:02;1.80;99.90
20349;DHT22;10332;50.208;18.988;2022-11-18T05:54:29;1.90;99.90
20349;DHT22;10332;50.208;18.988;2022-11-18T05:56:57;1.90;99.90
20349;DHT22;10332;50.208;18.988;2022-11-18T05:59:24;1.90;99.90
20349;DHT22;10332;50.208;18.988;2022-11-18T06:02:05;2.00;99.90
20349;DHT22;10332;50.208;18.988;2022-11-18T06:04:49;2.00;99.90
20349;DHT22;10332;50.208;18.988;2022-11-18T06:07:37;2.00;99.90
20349;DHT22;10332;50.208;18.988;2022-11-18T06:10:10;2.00;99.90
20349;DHT22;10332;50.208;18.988;2022-11-18T06:12:45;2.10;99.90
20349;DHT22;10332;50.208;18.988;2022-11-18T06:15:21;2.10;99.90
20349;DHT22;10332;50.208;18.988;2022-11-18T06:17:59;2.10;99.90
20349;DHT22;10332;50.208;18.988;2022-11-18T06:20:54;2.20;99.90
20349;DHT22;10332;50.208;18.988;2022-11-18T06:23:32;2.20;99.90
20349;DHT22;10332;50.208;18.988;2022-11-18T06:26:02;2.20;99.90
20349;DHT22;10332;50.208;18.988;2022-11-18T06:28:29;2.20;99.90
20349;DHT22;10332;50.208;18.988;2022-11-18T06:30:57;2.30;99.90
20349;DHT22;10332;50.208;18.988;2022-11-18T06:33:25;2.20;99.90
20349;DHT22;10332;50.208;18.988;2022-11-18T06:35:52;2.20;99.90
20349;DHT22;10332;50.208;18.988;2022-11-18T06:38:22;2.30;99.90
20349;DHT22;10332;50.208;18.988;2022-11-18T06:40:51;2.30;99.90
20349;DHT22;10332;50.208;18.988;2022-11-18T06:43:18;2.30;99.90
20349;DHT22;10332;50.208;18.988;2022-11-18T06:46:05;2.30;99.90
20349;DHT22;10332;50.208;18.988;2022-11-18T06:48:53;2.30;99.90
20349;DHT22;10332;50.208;18.988;2022-11-18T06:51:20;2.30;99.90
20349;DHT22;10332;50.208;18.988;2022-11-18T06:53:48;2.30;99.90
20349;DHT22;10332;50.208;18.988;2022-11-18T06:56:17;2.30;99.90
20349;DHT22;10332;50.208;18.988;2022-11-18T06:58:46;2.20;99.90
20349;DHT22;10332;50.208;18.988;2022-11-18T07:01:20;2.20;99.90
20349;DHT22;10332;50.208;18.988;2022-11-18T07:03:49;2.20;99.90
20349;DHT22;10332;50.208;18.988;2022-11-18T07:06:29;2.10;99.90
20349;DHT22;10332;50.208;18.988;2022-11-18T07:09:04;2.10;99.90
20349;DHT22;10332;50.208;18.988;2022-11-18T07:11:33;2.10;99.90
20349;DHT22;10332;50.208;18.988;2022-11-18T07:14:00;2.00;99.90
20349;DHT22;10332;50.208;18.988;2022-11-18T07:16:28;2.10;99.90
20349;DHT22;10332;50.208;18.988;2022-11-18T07:18:56;2.10;99.90
20349;DHT22;10332;50.208;18.988;2022-11-18T07:21:26;2.10;99.90
20349;DHT22;10332;50.208;18.988;2022-11-18T07:23:55;2.00;99.90
20349;DHT22;10332;50.208;18.988;2022-11-18T07:26:23;2.10;99.90
20349;DHT22;10332;50.208;18.988;2022-11-18T07:28:50;2.20;99.90
20349;DHT22;10332;50.208;18.988;2022-11-18T07:31:20;2.20;99.90
20349;DHT22;10332;50.208;18.988;2022-11-18T07:33:48;2.20;99.90
20349;DHT22;10332;50.208;18.988;2022-11-18T07:36:18;2.20;99.90
20349;DHT22;10332;50.208;18.988;2022-11-18T07:38:51;2.20;99.90
20349;DHT22;10332;50.208;18.988;2022-11-18T07:41:23;2.20;99.90
20349;DHT22;10332;50.208;18.988;2022-11-18T07:43:54;2.30;99.90
20349;DHT22;10332;50.208;18.988;2022-11-18T07:46:29;2.20;99.90
20349;DHT22;10332;50.208;18.988;2022-11-18T07:49:00;2.30;99.90
20349;DHT22;10332;50.208;18.988;2022-11-18T07:51:35;2.40;99.90
20349;DHT22;10332;50.208;18.988;2022-11-18T07:54:08;2.30;99.90
20349;DHT22;10332;50.208;18.988;2022-11-18T07:56:37;2.30;99.90
20349;DHT22;10332;50.208;18.988;2022-11-18T07:59:06;2.30;99.90
20349;DHT22;10332;50.208;18.988;2022-11-18T08:01:33;2.40;99.90
20349;DHT22;10332;50.208;18.988;2022-11-18T08:04:09;2.50;99.90
20349;DHT22;10332;50.208;18.988;2022-11-18T08:06:39;2.60;99.90
20349;DHT22;10332;50.208;18.988;2022-11-18T08:09:07;2.70;99.90
20349;DHT22;10332;50.208;18.988;2022-11-18T08:11:35;2.70;99.90
20349;DHT22;10332;50.208;18.988;2022-11-18T08:14:03;2.80;99.90
20349;DHT22;10332;50.208;18.988;2022-11-18T08:16:31;2.80;99.90
20349;DHT22;10332;50.208;18.988;2022-11-18T08:18:58;2.80;99.90
20349;DHT22;10332;50.208;18.988;2022-11-18T08:21:26;2.80;99.90
20349;DHT22;10332;50.208;18.988;2022-11-18T08:23:56;2.90;99.90
20349;DHT22;10332;50.208;18.988;2022-11-18T08:26:24;2.90;99.90
20349;DHT22;10332;50.208;18.988;2022-11-18T08:28:52;2.90;99.90
20349;DHT22;10332;50.208;18.988;2022-11-18T08:31:25;2.90;99.90
20349;DHT22;10332;50.208;18.988;2022-11-18T08:33:59;2.80;99.90
20349;DHT22;10332;50.208;18.988;2022-11-18T08:36:30;2.90;99.90
20349;DHT22;10332;50.208;18.988;2022-11-18T08:39:01;3.00;99.90
20349;DHT22;10332;50.208;18.988;2022-11-18T08:41:32;2.90;99.90
20349;DHT22;10332;50.208;18.988;2022-11-18T08:44:02;2.90;99.90
20349;DHT22;10332;50.208;18.988;2022-11-18T08:46:31;3.00;99.90
20349;DHT22;10332;50.208;18.988;2022-11-18T08:48:59;2.90;99.90
20349;DHT22;10332;50.208;18.988;2022-11-18T08:51:27;3.00;99.90
20349;DHT22;10332;50.208;18.988;2022-11-18T08:53:55;3.00;99.90
20349;DHT22;10332;50.208;18.988;2022-11-18T08:56:23;3.10;99.90
20349;DHT22;10332;50.208;18.988;2022-11-18T08:58:52;3.10;99.40
20349;DHT22;10332;50.208;18.988;2022-11-18T09:01:19;3.00;99.60
20349;DHT22;10332;50.208;18.988;2022-11-18T09:03:47;3.00;99.60
20349;DHT22;10332;50.208;18.988;2022-11-18T09:06:17;3.10;99.70
20349;DHT22;10332;50.208;18.988;2022-11-18T09:08:46;3.20;99.90
20349;DHT22;10332;50.208;18.988;2022-11-18T09:11:16;3.30;97.50
20349;DHT22;10332;50.208;18.988;2022-11-18T09:13:45;3.30;97.40
20349;DHT22;10332;50.208;18.988;2022-11-18T09:16:34;3.40;96.30
20349;DHT22;10332;50.208;18.988;2022-11-18T09:19:02;3.40;95.90
20349;DHT22;10332;50.208;18.988;2022-11-18T09:21:50;3.50;95.50
20349;DHT22;10332;50.208;18.988;2022-11-18T09:24:17;3.40;94.60
20349;DHT22;10332;50.208;18.988;2022-11-18T09:26:46;3.30;95.40
20349;DHT22;10332;50.208;18.988;2022-11-18T09:29:14;3.40;95.40
20349;DHT22;10332;50.208;18.988;2022-11-18T09:31:41;3.40;94.70
20349;DHT22;10332;50.208;18.988;2022-11-18T09:34:08;3.40;94.30
20349;DHT22;10332;50.208;18.988;2022-11-18T09:36:36;3.50;94.30
20349;DHT22;10332;50.208;18.988;2022-11-18T09:39:04;3.50;94.20
20349;DHT22;10332;50.208;18.988;2022-11-18T09:41:43;3.40;94.40
20349;DHT22;10332;50.208;18.988;2022-11-18T09:47:49;3.30;94.90
20349;DHT22;10332;50.208;18.988;2022-11-18T09:50:20;3.20;93.70
20349;DHT22;10332;50.208;18.988;2022-11-18T09:53:20;3.20;94.10
20349;DHT22;10332;50.208;18.988;2022-11-18T09:55:50;3.10;94.50
20349;DHT22;10332;50.208;18.988;2022-11-18T10:00:53;2.90;94.80
20349;DHT22;10332;50.208;18.988;2022-11-18T10:03:29;2.80;95.60
20349;DHT22;10332;50.208;18.988;2022-11-18T10:09:08;2.80;97.00
20349;DHT22;10332;50.208;18.988;2022-11-18T10:18:16;2.90;96.10
20349;DHT22;10332;50.208;18.988;2022-11-18T10:20:30;2.90;94.80
20349;DHT22;10332;50.208;18.988;2022-11-18T10:23:39;2.80;95.70
20349;DHT22;10332;50.208;18.988;2022-11-18T10:26:34;2.80;96.30
20349;DHT22;10332;50.208;18.988;2022-11-18T10:29:04;2.80;96.30
20349;DHT22;10332;50.208;18.988;2022-11-18T10:31:37;2.70;95.60
20349;DHT22;10332;50.208;18.988;2022-11-18T10:34:09;2.70;96.70
20349;DHT22;10332;50.208;18.988;2022-11-18T10:36:39;2.70;97.50
20349;DHT22;10332;50.208;18.988;2022-11-18T10:39:12;2.70;96.70
20349;DHT22;10332;50.208;18.988;2022-11-18T10:41:45;2.60;97.00
20349;DHT22;10332;50.208;18.988;2022-11-18T10:44:36;2.60;96.90
20349;DHT22;10332;50.208;18.988;2022-11-18T10:47:23;2.60;97.10
20349;DHT22;10332;50.208;18.988;2022-11-18T10:49:55;2.60;96.20
20349;DHT22;10332;50.208;18.988;2022-11-18T10:52:27;2.60;97.30
20349;DHT22;10332;50.208;18.988;2022-11-18T10:57:45;2.60;96.70
20349;DHT22;10332;50.208;18.988;2022-11-18T11:03:34;2.60;96.50
20349;DHT22;10332;50.208;18.988;2022-11-18T11:06:13;2.60;96.20
20349;DHT22;10332;50.208;18.988;2022-11-18T11:22:30;2.70;98.90
20349;DHT22;10332;50.208;18.988;2022-11-18T11:24:58;2.70;96.60
20349;DHT22;10332;50.208;18.988;2022-11-18T11:28:00;2.80;97.10
20349;DHT22;10332;50.208;18.988;2022-11-18T11:33:41;2.90;95.00
20349;DHT22;10332;50.208;18.988;2022-11-18T12:00:03;3.00;92.20
20349;DHT22;10332;50.208;18.988;2022-11-18T12:02:59;3.00;92.30
20349;DHT22;10332;50.208;18.988;2022-11-18T12:06:00;3.00;91.60
20349;DHT22;10332;50.208;18.988;2022-11-18T12:08:30;3.00;90.70
20349;DHT22;10332;50.208;18.988;2022-11-18T12:11:11;2.90;91.70
20349;DHT22;10332;50.208;18.988;2022-11-18T12:14:44;2.90;90.50
20349;DHT22;10332;50.208;18.988;2022-11-18T12:17:14;2.80;89.20
20349;DHT22;10332;50.208;18.988;2022-11-18T12:19:50;2.70;88.40
20349;DHT22;10332;50.208;18.988;2022-11-18T12:22:18;2.70;90.90
20349;DHT22;10332;50.208;18.988;2022-11-18T12:24:45;2.60;90.30
20349;DHT22;10332;50.208;18.988;2022-11-18T12:29:57;2.40;90.90
20349;DHT22;10332;50.208;18.988;2022-11-18T12:32:42;2.30;92.40
20349;DHT22;10332;50.208;18.988;2022-11-18T12:40:42;2.00;91.10
20349;DHT22;10332;50.208;18.988;2022-11-18T12:51:50;2.00;93.30
20349;DHT22;10332;50.208;18.988;2022-11-18T12:54:46;1.90;93.00
20349;DHT22;10332;50.208;18.988;2022-11-18T12:57:27;1.90;93.00
20349;DHT22;10332;50.208;18.988;2022-11-18T13:00:14;1.90;93.00
20349;DHT22;10332;50.208;18.988;2022-11-18T13:02:57;1.80;92.00
20349;DHT22;10332;50.208;18.988;2022-11-18T13:05:29;1.80;92.90
20349;DHT22;10332;50.208;18.988;2022-11-18T13:08:05;1.80;92.30
20349;DHT22;10332;50.208;18.988;2022-11-18T13:11:03;1.80;90.80
20349;DHT22;10332;50.208;18.988;2022-11-18T13:14:05;1.80;90.40
20349;DHT22;10332;50.208;18.988;2022-11-18T13:16:58;1.80;90.00
20349;DHT22;10332;50.208;18.988;2022-11-18T13:19:55;1.90;87.60
20349;DHT22;10332;50.208;18.988;2022-11-18T13:22:24;1.90;86.90
20349;DHT22;10332;50.208;18.988;2022-11-18T13:25:31;1.90;86.10
20349;DHT22;10332;50.208;18.988;2022-11-18T13:30:59;1.80;86.00
20349;DHT22;10332;50.208;18.988;2022-11-18T13:33:35;1.80;86.70
20349;DHT22;10332;50.208;18.988;2022-11-18T13:36:22;1.80;83.80
20349;DHT22;10332;50.208;18.988;2022-11-18T13:38:59;1.70;82.80
20349;DHT22;10332;50.208;18.988;2022-11-18T13:41:30;1.80;83.60
20349;DHT22;10332;50.208;18.988;2022-11-18T13:44:20;1.70;84.70
20349;DHT22;10332;50.208;18.988;2022-11-18T13:49:57;1.60;84.20
20349;DHT22;10332;50.208;18.988;2022-11-18T13:55:48;1.50;82.00
20349;DHT22;10332;50.208;18.988;2022-11-18T14:01:32;1.30;84.80
20349;DHT22;10332;50.208;18.988;2022-11-18T14:04:18;1.30;83.50
20349;DHT22;10332;50.208;18.988;2022-11-18T14:06:49;1.20;83.50
20349;DHT22;10332;50.208;18.988;2022-11-18T14:09:24;1.20;83.10
20349;DHT22;10332;50.208;18.988;2022-11-18T14:14:41;1.20;84.10
20349;DHT22;10332;50.208;18.988;2022-11-18T14:17:20;1.20;84.60
20349;DHT22;10332;50.208;18.988;2022-11-18T14:19:52;1.20;85.70
20349;DHT22;10332;50.208;18.988;2022-11-18T14:22:23;1.30;85.10
20349;DHT22;10332;50.208;18.988;2022-11-18T14:25:02;1.30;84.20
20349;DHT22;10332;50.208;18.988;2022-11-18T14:27:51;1.30;82.30
20349;DHT22;10332;50.208;18.988;2022-11-18T14:33:25;1.30;81.80
20349;DHT22;10332;50.208;18.988;2022-11-18T14:35:59;1.30;80.30
20349;DHT22;10332;50.208;18.988;2022-11-18T14:38:50;1.20;80.40
20349;DHT22;10332;50.208;18.988;2022-11-18T14:41:37;1.20;81.30
20349;DHT22;10332;50.208;18.988;2022-11-18T14:44:15;1.20;82.20
20349;DHT22;10332;50.208;18.988;2022-11-18T14:47:00;1.20;81.70
20349;DHT22;10332;50.208;18.988;2022-11-18T14:49:30;1.20;80.80
20349;DHT22;10332;50.208;18.988;2022-11-18T14:51:59;1.30;79.70
20349;DHT22;10332;50.208;18.988;2022-11-18T14:54:31;1.20;79.80
20349;DHT22;10332;50.208;18.988;2022-11-18T14:57:03;1.20;82.20
20349;DHT22;10332;50.208;18.988;2022-11-18T14:59:31;1.20;80.90
20349;DHT22;10332;50.208;18.988;2022-11-18T15:01:59;1.20;80.90
20349;DHT22;10332;50.208;18.988;2022-11-18T15:04:27;1.20;80.50
20349;DHT22;10332;50.208;18.988;2022-11-18T15:06:54;1.10;78.00
20349;DHT22;10332;50.208;18.988;2022-11-18T15:09:22;1.10;77.20
20349;DHT22;10332;50.208;18.988;2022-11-18T15:11:50;0.90;78.10
20349;DHT22;10332;50.208;18.988;2022-11-18T15:14:18;1.00;78.00
20349;DHT22;10332;50.208;18.988;2022-11-18T15:16:45;0.90;79.20
20349;DHT22;10332;50.208;18.988;2022-11-18T15:19:14;1.00;79.10
20349;DHT22;10332;50.208;18.988;2022-11-18T15:21:43;1.00;79.40
20349;DHT22;10332;50.208;18.988;2022-11-18T15:24:11;1.00;78.90
20349;DHT22;10332;50.208;18.988;2022-11-18T15:26:44;1.00;78.20
20349;DHT22;10332;50.208;18.988;2022-11-18T15:29:21;1.00;78.30
20349;DHT22;10332;50.208;18.988;2022-11-18T15:31:50;1.00;78.10
20349;DHT22;10332;50.208;18.988;2022-11-18T15:34:18;1.00;77.70
20349;DHT22;10332;50.208;18.988;2022-11-18T15:36:47;0.90;77.20
20349;DHT22;10332;50.208;18.988;2022-11-18T15:39:15;1.00;76.30
20349;DHT22;10332;50.208;18.988;2022-11-18T15:41:43;0.90;74.30
20349;DHT22;10332;50.208;18.988;2022-11-18T15:44:11;0.80;73.80
20349;DHT22;10332;50.208;18.988;2022-11-18T15:46:39;0.80;74.60
20349;DHT22;10332;50.208;18.988;2022-11-18T15:49:11;0.80;73.40
20349;DHT22;10332;50.208;18.988;2022-11-18T15:51:40;0.80;73.20
20349;DHT22;10332;50.208;18.988;2022-11-18T15:54:08;0.80;73.80
20349;DHT22;10332;50.208;18.988;2022-11-18T15:56:35;0.80;74.10
20349;DHT22;10332;50.208;18.988;2022-11-18T15:59:16;0.80;73.80
20349;DHT22;10332;50.208;18.988;2022-11-18T16:01:45;0.70;72.90
20349;DHT22;10332;50.208;18.988;2022-11-18T16:04:17;0.70;72.60
20349;DHT22;10332;50.208;18.988;2022-11-18T16:06:45;0.70;72.50
20349;DHT22;10332;50.208;18.988;2022-11-18T16:09:14;0.80;72.80
20349;DHT22;10332;50.208;18.988;2022-11-18T16:11:43;0.70;74.30
20349;DHT22;10332;50.208;18.988;2022-11-18T16:14:29;0.80;74.00
20349;DHT22;10332;50.208;18.988;2022-11-18T16:16:56;0.80;76.40
20349;DHT22;10332;50.208;18.988;2022-11-18T16:19:25;0.80;73.80
20349;DHT22;10332;50.208;18.988;2022-11-18T16:21:54;0.90;74.00
20349;DHT22;10332;50.208;18.988;2022-11-18T16:24:25;1.10;89.80
20349;DHT22;10332;50.208;18.988;2022-11-18T16:26:55;1.20;76.70
20349;DHT22;10332;50.208;18.988;2022-11-18T16:29:23;1.10;71.50
20349;DHT22;10332;50.208;18.988;2022-11-18T16:31:52;1.10;70.10
20349;DHT22;10332;50.208;18.988;2022-11-18T16:34:40;1.10;69.30
20349;DHT22;10332;50.208;18.988;2022-11-18T16:37:07;1.00;69.80
20349;DHT22;10332;50.208;18.988;2022-11-18T16:39:35;0.90;70.60
20349;DHT22;10332;50.208;18.988;2022-11-18T16:42:02;0.90;70.90
20349;DHT22;10332;50.208;18.988;2022-11-18T16:44:35;1.00;70.30
20349;DHT22;10332;50.208;18.988;2022-11-18T16:47:04;0.90;70.40
20349;DHT22;10332;50.208;18.988;2022-11-18T16:49:41;1.00;71.30
20349;DHT22;10332;50.208;18.988;2022-11-18T16:52:09;0.90;72.20
20349;DHT22;10332;50.208;18.988;2022-11-18T16:54:36;1.00;70.70
20349;DHT22;10332;50.208;18.988;2022-11-18T16:57:12;1.00;70.10
20349;DHT22;10332;50.208;18.988;2022-11-18T16:59:39;1.00;70.20
20349;DHT22;10332;50.208;18.988;2022-11-18T17:02:10;1.10;70.50
20349;DHT22;10332;50.208;18.988;2022-11-18T17:04:39;1.00;69.60
20349;DHT22;10332;50.208;18.988;2022-11-18T17:07:07;1.10;68.60
20349;DHT22;10332;50.208;18.988;2022-11-18T17:09:36;1.00;68.20
20349;DHT22;10332;50.208;18.988;2022-11-18T17:12:03;0.90;68.90
20349;DHT22;10332;50.208;18.988;2022-11-18T17:14:31;1.00;69.70
20349;DHT22;10332;50.208;18.988;2022-11-18T17:16:58;1.00;69.70
20349;DHT22;10332;50.208;18.988;2022-11-18T17:19:26;0.90;69.50
20349;DHT22;10332;50.208;18.988;2022-11-18T17:21:53;1.00;70.20
20349;DHT22;10332;50.208;18.988;2022-11-18T17:24:22;0.90;70.70
20349;DHT22;10332;50.208;18.988;2022-11-18T17:26:50;0.90;71.00
20349;DHT22;10332;50.208;18.988;2022-11-18T17:29:19;0.90;71.80
20349;DHT22;10332;50.208;18.988;2022-11-18T17:31:47;1.00;72.10
20349;DHT22;10332;50.208;18.988;2022-11-18T17:34:15;1.00;72.70
20349;DHT22;10332;50.208;18.988;2022-11-18T17:36:43;0.90;73.30
20349;DHT22;10332;50.208;18.988;2022-11-18T17:39:11;0.90;73.70
20349;DHT22;10332;50.208;18.988;2022-11-18T17:41:39;0.90;73.50
20349;DHT22;10332;50.208;18.988;2022-11-18T17:44:26;0.90;73.90
20349;DHT22;10332;50.208;18.988;2022-11-18T17:46:54;1.00;74.10
20349;DHT22;10332;50.208;18.988;2022-11-18T17:49:22;1.00;73.80
20349;DHT22;10332;50.208;18.988;2022-11-18T17:51:50;1.00;73.10
20349;DHT22;10332;50.208;18.988;2022-11-18T17:54:18;0.90;72.10
20349;DHT22;10332;50.208;18.988;2022-11-18T17:56:47;0.90;71.80
20349;DHT22;10332;50.208;18.988;2022-11-18T17:59:19;0.90;71.70
20349;DHT22;10332;50.208;18.988;2022-11-18T18:01:46;0.90;70.90
20349;DHT22;10332;50.208;18.988;2022-11-18T18:04:19;0.80;71.90
20349;DHT22;10332;50.208;18.988;2022-11-18T18:06:48;0.80;72.50
20349;DHT22;10332;50.208;18.988;2022-11-18T18:09:18;0.80;72.20